Time;durP1;ratioP1;P1;durP2;ratioP2;P2;SDS_P1;SDS_P2;PMS_P1;PMS_P2;Temp;Humidity;BMP_temperature;BMP_pressure;BME280_temperature;BME280_humidity;BME280_pressure;Samples;Min_cycle;Max_cycle;Signal;HPM_P1;HPM_P2
2021/06/26 00:00:12;;;;;;;30.05;11.63;;;;;;;23.28;100.00;100388.57;1804468;78;21130;-91
2021/06/26 00:02:40;;;;;;;43.17;12.13;;;;;;;23.31;100.00;100388.70;1773896;79;21115;-91
2021/06/26 00:05:10;;;;;;;32.63;10.75;;;;;;;23.35;100.00;100383.79;1804548;79;21100;-90
2021/06/26 00:07:39;;;;;;;22.73;10.78;;;;;;;23.37;100.00;100387.03;1804755;78;21066;-89
2021/06/26 00:10:08;;;;;;;24.65;10.80;;;;;;;23.37;100.00;100385.70;1804458;78;21079;-92
2021/06/26 00:12:35;;;;;;;34.38;11.43;;;;;;;23.34;100.00;100384.28;1805000;79;21008;-91
2021/06/26 00:15:09;;;;;;;29.63;11.78;;;;;;;23.30;100.00;100381.75;1804374;79;21839;-95
2021/06/26 00:17:37;;;;;;;28.30;10.60;;;;;;;23.22;100.00;100376.12;1773720;79;20988;-90
2021/06/26 00:20:06;;;;;;;31.33;11.50;;;;;;;23.15;100.00;100379.26;1797716;79;21114;-92
2021/06/26 00:22:33;;;;;;;34.67;11.40;;;;;;;23.09;100.00;100378.75;1813497;77;21048;-90
2021/06/26 00:25:00;;;;;;;24.85;10.53;;;;;;;23.07;100.00;100386.09;1808815;77;21575;-91
2021/06/26 00:27:31;;;;;;;29.02;9.95;;;;;;;23.06;100.00;100384.46;1809047;77;21700;-92
2021/06/26 00:29:58;;;;;;;29.55;10.00;;;;;;;23.04;100.00;100387.33;1808718;77;21111;-93
2021/06/26 00:32:25;;;;;;;23.80;9.90;;;;;;;23.02;100.00;100376.61;1808208;78;21002;-91
2021/06/26 00:34:52;;;;;;;27.93;8.63;;;;;;;23.01;100.00;100382.41;1808588;78;21094;-90
2021/06/26 00:37:19;;;;;;;21.07;8.10;;;;;;;22.99;100.00;100382.63;1808860;78;21090;-89
2021/06/26 00:39:47;;;;;;;24.25;8.18;;;;;;;22.95;100.00;100384.06;1808698;77;21287;-90
2021/06/26 00:42:14;;;;;;;20.25;7.35;;;;;;;22.91;100.00;100386.80;1808897;77;21138;-90
2021/06/26 00:44:41;;;;;;;30.30;7.58;;;;;;;22.85;100.00;100380.98;1808696;78;21040;-92
2021/06/26 00:47:12;;;;;;;23.87;7.40;;;;;;;22.81;100.00;100377.92;1808251;78;21032;-92
2021/06/26 00:49:40;;;;;;;26.07;7.65;;;;;;;22.78;100.00;100381.48;1808956;77;21103;-90
2021/06/26 00:52:09;;;;;;;28.60;7.30;;;;;;;22.76;100.00;100379.02;1829599;77;22758;-89
2021/06/26 00:54:36;;;;;;;37.80;8.15;;;;;;;22.78;100.00;100380.16;1808677;77;20915;-92
2021/06/26 00:57:05;;;;;;;27.35;7.25;;;;;;;22.77;100.00;100378.00;1808899;77;21000;-92
2021/06/26 00:59:34;;;;;;;24.40;7.47;;;;;;;22.75;100.00;100382.72;1808669;78;21052;-91
2021/06/26 01:02:03;;;;;;;27.37;7.12;;;;;;;22.67;100.00;100374.42;1808881;77;21071;-90
2021/06/26 01:04:30;;;;;;;30.45;8.33;;;;;;;22.58;100.00;100371.64;1808481;77;21020;-91
2021/06/26 01:06:57;;;;;;;33.42;8.05;;;;;;;22.42;100.00;100372.00;1808964;78;21001;-93
2021/06/26 01:09:31;;;;;;;25.20;7.92;;;;;;;22.24;100.00;100379.97;1829610;77;21044;-89
2021/06/26 01:12:00;;;;;;;24.10;7.92;;;;;;;22.11;100.00;100382.57;1808780;77;20988;-90
2021/06/26 01:14:30;;;;;;;23.67;10.10;;;;;;;21.99;100.00;100387.09;1808762;77;21103;-89
2021/06/26 01:17:07;;;;;;;25.40;10.17;;;;;;;21.92;100.00;100387.56;1807030;77;21563;-90
2021/06/26 01:19:36;;;;;;;29.07;10.78;;;;;;;21.89;100.00;100385.33;1759605;81;21379;-91
2021/06/26 01:22:06;;;;;;;31.12;11.33;;;;;;;21.89;100.00;100386.66;1805301;77;21079;-90
2021/06/26 01:24:37;;;;;;;29.23;10.95;;;;;;;21.90;100.00;100386.97;1804930;77;20964;-89
2021/06/26 01:27:04;;;;;;;47.30;12.90;;;;;;;21.93;100.00;100386.56;1806142;78;21051;-91
2021/06/26 01:29:32;;;;;;;33.30;11.97;;;;;;;21.95;100.00;100391.16;1805105;78;21071;-93
2021/06/26 01:32:00;;;;;;;23.00;11.80;;;;;;;21.94;100.00;100382.90;1805100;78;21094;-90
2021/06/26 01:34:27;;;;;;;27.30;11.85;;;;;;;21.99;100.00;100387.09;1805226;78;20914;-89
2021/06/26 01:36:55;;;;;;;26.10;12.45;;;;;;;22.00;100.00;100381.30;1837638;77;21055;-92
2021/06/26 01:39:22;;;;;;;27.10;12.28;;;;;;;22.01;100.00;100383.75;1805817;78;21119;-92
2021/06/26 01:41:49;;;;;;;34.67;13.10;;;;;;;22.07;100.00;100386.13;1805220;78;21024;-90
2021/06/26 01:44:17;;;;;;;29.52;12.05;;;;;;;22.13;100.00;100389.83;1837410;77;21050;-92
2021/06/26 01:46:44;;;;;;;26.37;12.28;;;;;;;22.17;100.00;100391.05;1805282;78;20956;-94
2021/06/26 01:49:14;;;;;;;31.15;13.00;;;;;;;22.19;100.00;100394.33;1805367;77;20989;-88
2021/06/26 01:51:41;;;;;;;31.68;12.45;;;;;;;22.18;100.00;100396.67;1805030;78;21507;-93
2021/06/26 01:54:10;;;;;;;20.90;11.78;;;;;;;22.18;100.00;100394.02;1837735;77;21139;-91
2021/06/26 01:56:41;;;;;;;22.05;11.43;;;;;;;22.18;100.00;100395.34;1804982;78;21487;-91
2021/06/26 01:59:09;;;;;;;35.90;12.10;;;;;;;22.20;100.00;100395.45;1805536;77;20974;-92
2021/06/26 02:01:36;;;;;;;25.05;11.78;;;;;;;22.22;100.00;100393.95;1805226;78;21059;-88
2021/06/26 02:04:04;;;;;;;43.85;12.50;;;;;;;22.22;100.00;100386.80;1799880;78;21063;-90
2021/06/26 02:06:31;;;;;;;21.35;12.18;;;;;;;22.26;100.00;100381.91;1805599;77;21061;-89
2021/06/26 02:08:58;;;;;;;27.80;13.62;;;;;;;22.26;100.00;100379.27;1805473;78;21094;-90
2021/06/26 02:11:25;;;;;;;21.60;12.82;;;;;;;22.27;100.00;100378.25;1805424;78;21000;-90
2021/06/26 02:13:54;;;;;;;26.97;13.65;;;;;;;22.27;100.00;100380.91;1805288;78;21578;-91
2021/06/26 02:16:27;;;;;;;27.85;12.93;;;;;;;22.27;100.00;100372.14;1805410;77;20992;-89
2021/06/26 02:18:54;;;;;;;33.33;14.87;;;;;;;22.28;100.00;100377.23;1780147;77;21143;-92
2021/06/26 02:21:22;;;;;;;31.70;14.90;;;;;;;22.29;100.00;100373.58;1773480;79;21007;-90
2021/06/26 02:23:49;;;;;;;27.93;14.47;;;;;;;22.32;100.00;100380.31;1798915;78;21474;-93
2021/06/26 02:26:19;;;;;;;28.92;13.85;;;;;;;22.37;100.00;100385.83;1804997;78;21012;-89
2021/06/26 02:28:47;;;;;;;32.85;15.65;;;;;;;22.40;100.00;100385.97;1805635;77;21118;-91
2021/06/26 02:31:15;;;;;;;34.73;16.45;;;;;;;22.43;100.00;100384.25;1805165;78;21051;-88
2021/06/26 02:33:44;;;;;;;37.23;17.15;;;;;;;22.45;100.00;100386.20;1805721;77;20937;-89
2021/06/26 02:36:16;;;;;;;27.87;16.65;;;;;;;22.44;100.00;100384.56;1805864;78;21517;-88
2021/06/26 02:38:44;;;;;;;26.82;15.68;;;;;;;22.45;100.00;100390.18;1798806;77;21064;-90
2021/06/26 02:41:21;;;;;;;;;;;;;;;;;;;;;
2021/06/26 02:43:43;;;;;;;29.27;14.30;;;;;;;22.41;100.00;100389.77;1738767;80;21484;-90
2021/06/26 02:46:31;;;;;;;33.15;15.03;;;;;;;22.41;100.00;100385.78;1750674;80;21038;-89
2021/06/26 02:48:59;;;;;;;25.08;14.83;;;;;;;22.45;100.00;100379.58;1740559;81;21081;-90
2021/06/26 02:51:26;;;;;;;28.07;14.80;;;;;;;22.48;100.00;100381.31;1766363;80;21070;-93
2021/06/26 02:53:56;;;;;;;26.52;14.73;;;;;;;22.51;100.00;100380.09;1764694;80;21616;-89
2021/06/26 02:56:23;;;;;;;31.52;14.93;;;;;;;22.49;100.00;100375.00;1761737;80;21432;-90
2021/06/26 02:58:52;;;;;;;31.42;14.65;;;;;;;22.48;100.00;100377.83;1758610;80;21145;-91
2021/06/26 03:01:23;;;;;;;28.33;14.63;;;;;;;22.51;100.00;100378.24;1739869;81;20971;-89
2021/06/26 03:03:53;;;;;;;27.15;14.30;;;;;;;22.58;100.00;100381.45;1731738;81;21062;-90
2021/06/26 03:06:20;;;;;;;37.23;14.05;;;;;;;22.64;100.00;100379.31;1711830;82;21001;-89
2021/06/26 03:08:49;;;;;;;25.80;13.05;;;;;;;22.69;100.00;100379.02;1711764;81;21469;-88
2021/06/26 03:11:16;;;;;;;45.98;14.60;;;;;;;22.76;100.00;100383.52;1739971;80;21018;-90
2021/06/26 03:13:43;;;;;;;29.37;13.90;;;;;;;22.80;100.00;100383.41;1748505;81;21078;-88
2021/06/26 03:16:10;;;;;;;30.48;13.50;;;;;;;22.83;100.00;100388.32;1732005;81;21109;-87
2021/06/26 03:18:43;;;;;;;32.45;13.05;;;;;;;22.85;100.00;100384.97;1765355;80;21548;-91
2021/06/26 03:21:13;;;;;;;42.50;13.80;;;;;;;22.87;100.00;100384.27;1734575;81;21428;-91
2021/06/26 03:23:41;;;;;;;36.23;13.60;;;;;;;22.93;100.00;100379.95;1766916;80;21101;-89
2021/06/26 03:26:10;;;;;;;46.90;14.40;;;;;;;23.01;100.00;100379.76;1767140;79;21046;-90
2021/06/26 03:28:37;;;;;;;65.37;28.80;;;;;;;23.11;100.00;100377.52;1766759;80;20979;-88
2021/06/26 03:31:06;;;;;;;71.33;28.70;;;;;;;23.23;100.00;100368.98;1765468;80;20935;-91
2021/06/26 03:33:33;;;;;;;69.47;30.20;;;;;;;23.33;100.00;100367.23;1741158;81;21070;-91
2021/06/26 03:36:01;;;;;;;55.23;29.05;;;;;;;23.41;100.00;100368.34;1741494;81;21096;-87
2021/06/26 03:38:30;;;;;;;44.25;26.65;;;;;;;23.50;100.00;100372.43;1755594;80;21082;-90
2021/06/26 03:41:03;;;;;;;56.13;24.07;;;;;;;23.55;100.00;100368.63;1738745;81;21016;-93
2021/06/26 03:43:33;;;;;;;49.27;24.15;;;;;;;23.58;100.00;100370.05;1722146;81;21738;-88
2021/06/26 03:46:00;;;;;;;45.92;23.95;;;;;;;23.62;100.00;100370.76;1766418;80;21085;-89
2021/06/26 03:48:27;;;;;;;49.35;23.98;;;;;;;23.66;100.00;100373.02;1714846;80;21008;-90
2021/06/26 03:50:59;;;;;;;44.95;21.82;;;;;;;23.72;100.00;100365.00;1736679;81;21038;-90
2021/06/26 03:53:27;;;;;;;44.48;19.25;;;;;;;23.83;100.00;100366.23;1765572;79;21057;-91
2021/06/26 03:55:56;;;;;;;41.80;18.87;;;;;;;23.92;100.00;100367.59;1765290;79;20986;-89
2021/06/26 03:58:25;;;;;;;30.70;13.88;;;;;;;24.03;100.00;100368.02;1765137;79;21507;-89
2021/06/26 04:00:58;;;;;;;51.92;15.90;;;;;;;24.09;100.00;100365.33;1766417;79;21073;-87
2021/06/26 04:03:27;;;;;;;29.85;11.40;;;;;;;24.15;100.00;100364.17;1735097;80;21077;-90
2021/06/26 04:05:54;;;;;;;29.40;11.48;;;;;;;24.22;100.00;100362.30;1778481;79;21081;-89
2021/06/26 04:08:23;;;;;;;48.98;12.00;;;;;;;24.30;100.00;100368.70;1753337;80;21127;-88
2021/06/26 04:10:54;;;;;;;34.83;11.93;;;;;;;24.41;100.00;100359.23;1754714;79;21038;-93
2021/06/26 04:13:21;;;;;;;;;;;;;;;24.52;100.00;100363.89;1768095;80;21018;-91
2021/06/26 04:15:56;;;;;;;39.67;12.50;;;;;;;24.59;100.00;100361.20;1768058;79;20134;-89
2021/06/26 04:18:26;;;;;;;59.25;14.70;;;;;;;24.63;100.00;100361.05;1765615;79;21583;-92
2021/06/26 04:20:55;;;;;;;33.92;12.07;;;;;;;24.65;100.00;100358.16;1798623;78;21112;-91
2021/06/26 04:23:23;;;;;;;54.23;12.95;;;;;;;24.66;100.00;100356.64;1773957;78;21323;-90
2021/06/26 04:25:52;;;;;;;39.18;12.25;;;;;;;24.66;100.00;100350.48;1793057;78;21084;-90
2021/06/26 04:28:20;;;;;;;25.30;11.45;;;;;;;24.74;100.00;100351.59;1775593;78;21156;-94
2021/06/26 04:30:47;;;;;;;26.50;10.72;;;;;;;24.82;100.00;100342.00;1775390;79;21045;-90
2021/06/26 04:33:15;;;;;;;29.82;11.33;;;;;;;24.89;100.00;100342.77;1775549;78;21024;-94
2021/06/26 04:35:43;;;;;;;31.62;10.65;;;;;;;24.96;100.00;100335.23;1800941;78;21464;-90
2021/06/26 04:38:10;;;;;;;39.18;10.43;;;;;;;25.07;100.00;100330.54;1744513;79;21160;-91
2021/06/26 04:40:37;;;;;;;28.15;9.73;;;;;;;25.17;100.00;100332.20;1750694;78;20998;-90
2021/06/26 04:43:06;;;;;;;28.52;9.28;;;;;;;25.33;100.00;100331.33;1775908;78;20961;-91
2021/06/26 04:45:34;;;;;;;32.93;9.45;;;;;;;25.46;100.00;100335.22;1806781;78;20981;-89
2021/06/26 04:48:01;;;;;;;22.62;8.93;;;;;;;25.56;100.00;100335.22;1776041;78;21110;-89
2021/06/26 04:50:31;;;;;;;30.57;10.08;;;;;;;25.67;100.00;100332.63;1806965;78;21017;-90
2021/06/26 04:52:58;;;;;;;20.95;9.48;;;;;;;25.77;100.00;100322.77;1775379;78;21029;-92
2021/06/26 04:55:25;;;;;;;20.62;8.20;;;;;;;25.82;100.00;100324.27;1775296;78;21013;-93
2021/06/26 04:57:55;;;;;;;29.20;8.53;;;;;;;25.83;100.00;100323.23;1786362;78;21017;-88
2021/06/26 05:00:23;;;;;;;16.27;8.17;;;;;;;25.83;100.00;100314.40;1769249;79;21085;-90
2021/06/26 05:02:57;;;;;;;25.85;9.90;;;;;;;25.84;100.00;100306.70;1775259;78;21441;-91
2021/06/26 05:05:24;;;;;;;27.67;11.18;;;;;;;25.86;100.00;100306.47;1774896;78;21480;-89
2021/06/26 05:07:51;;;;;;;28.32;11.83;;;;;;;25.89;100.00;100302.03;1771481;78;21053;-92
2021/06/26 05:10:18;;;;;;;17.07;8.78;;;;;;;25.94;100.00;100297.66;1779528;79;21075;-92
2021/06/26 05:12:46;;;;;;;36.17;10.55;;;;;;;26.01;100.00;100296.21;1742404;79;21095;-90
2021/06/26 05:15:15;;;;;;;30.15;8.95;;;;;;;26.12;100.00;100291.48;1743870;80;21034;-91
2021/06/26 05:17:42;;;;;;;24.25;8.43;;;;;;;26.20;100.00;100284.20;1763808;80;21041;-93
2021/06/26 05:20:16;;;;;;;25.00;8.70;;;;;;;26.29;100.00;100286.31;1747554;81;20999;-93
2021/06/26 05:22:42;;;;;;;26.50;8.78;;;;;;;26.37;100.00;100286.52;1707578;82;21105;-95
2021/06/26 05:25:10;;;;;;;24.23;8.43;;;;;;;26.49;100.00;100280.38;1712273;81;21077;-93
2021/06/26 05:27:37;;;;;;;20.32;7.40;;;;;;;26.63;100.00;100285.81;1735040;81;21019;-94
2021/06/26 05:30:06;;;;;;;16.42;7.10;;;;;;;26.78;100.00;100283.24;1718541;82;21043;-93
2021/06/26 05:32:33;;;;;;;14.73;6.15;;;;;;;26.89;100.00;100282.42;1712267;81;21089;-90
2021/06/26 05:35:00;;;;;;;16.65;5.92;;;;;;;26.99;100.00;100276.52;1733367;81;21048;-92
2021/06/26 05:37:27;;;;;;;14.35;5.78;;;;;;;27.12;100.00;100278.94;1736098;81;21557;-92
2021/06/26 05:39:55;;;;;;;22.52;5.67;;;;;;;27.24;100.00;100279.72;1726451;81;21050;-91
2021/06/26 05:42:22;;;;;;;22.87;5.42;;;;;;;27.37;100.00;100280.53;1735512;81;21078;-93
2021/06/26 05:44:49;;;;;;;12.23;4.53;;;;;;;27.46;100.00;100281.83;1710631;82;21043;-94
2021/06/26 05:48:09;;;;;;;13.60;4.90;;;;;;;27.58;100.00;100287.14;1714585;81;21030;-96
2021/06/26 05:50:37;;;;;;;14.93;4.47;;;;;;;27.65;100.00;100277.63;1730412;81;21055;-87
2021/06/26 05:53:04;;;;;;;12.07;5.22;;;;;;;27.76;100.00;100270.64;1754274;80;21047;-89
2021/06/26 05:55:31;;;;;;;14.75;4.40;;;;;;;27.85;100.00;100275.38;1733705;80;21438;-89
2021/06/26 05:57:58;;;;;;;18.02;4.97;;;;;;;27.98;100.00;100272.94;1733544;80;20958;-93
2021/06/26 06:00:28;;;;;;;12.33;4.37;;;;;;;28.10;100.00;100270.73;1749291;78;21033;-91
2021/06/26 06:02:54;;;;;;;18.20;5.12;;;;;;;28.17;100.00;100263.37;1763832;79;21088;-90
2021/06/26 06:05:21;;;;;;;14.18;5.25;;;;;;;28.21;100.00;100255.67;1751524;79;21520;-92
2021/06/26 06:07:48;;;;;;;12.47;5.10;;;;;;;28.26;100.00;100252.55;1763949;78;21069;-89
2021/06/26 06:10:17;;;;;;;14.00;5.03;;;;;;;28.31;100.00;100249.16;1744721;81;21057;-96
2021/06/26 06:12:45;;;;;;;17.95;5.10;;;;;;;28.33;100.00;100243.84;1734025;81;20955;-87
2021/06/26 06:15:14;;;;;;;16.42;5.55;;;;;;;28.39;100.00;100243.40;1746466;80;21006;-89
2021/06/26 06:17:42;;;;;;;10.55;4.72;;;;;;;28.48;100.00;100241.95;1734177;82;21144;-90
2021/06/26 06:20:10;;;;;;;16.45;4.97;;;;;;;28.63;100.00;100236.02;1742428;81;21022;-93
2021/06/26 06:22:39;;;;;;;10.28;4.53;;;;;;;28.78;100.00;100233.31;1755022;80;21575;-91
2021/06/26 06:25:10;;;;;;;17.07;5.20;;;;;;;28.89;100.00;100228.36;1733791;80;21057;-92
2021/06/26 06:27:41;;;;;;;11.53;4.87;;;;;;;28.97;100.00;100229.81;1739180;80;22919;-89
2021/06/26 06:30:10;;;;;;;18.07;5.15;;;;;;;29.04;100.00;100226.42;1772137;79;20987;-90
2021/06/26 06:32:38;;;;;;;14.28;5.05;;;;;;;29.17;100.00;100215.87;1711334;82;21097;-87
2021/06/26 06:35:07;;;;;;;17.57;5.35;;;;;;;29.30;100.00;100221.90;1712549;82;20998;-89
2021/06/26 06:37:35;;;;;;;9.18;4.60;;;;;;;29.41;100.00;100212.41;1725725;80;21586;-86
2021/06/26 06:40:05;;;;;;;14.33;5.37;;;;;;;29.49;100.00;100213.85;1780724;79;21965;-90
2021/06/26 06:42:33;;;;;;;12.70;5.10;;;;;;;29.62;100.00;100209.14;1772392;79;21007;-87
2021/06/26 06:45:00;;;;;;;12.55;4.55;;;;;;;29.72;100.00;100210.08;1742108;80;21038;-91
2021/06/26 06:47:27;;;;;;;11.00;5.45;;;;;;;29.86;100.00;100212.34;1737143;81;21035;-87
2021/06/26 06:49:54;;;;;;;16.82;5.92;;;;;;;30.02;99.19;100210.63;1736732;81;21062;-89
2021/06/26 06:52:20;;;;;;;13.95;5.17;;;;;;;30.19;96.85;100205.15;1713513;80;21041;-89
2021/06/26 06:54:47;;;;;;;19.42;5.78;;;;;;;30.36;100.00;100204.48;1780786;80;21488;-89
2021/06/26 06:57:14;;;;;;;19.15;5.42;;;;;;;30.51;88.66;100205.12;1772458;80;21038;-90
2021/06/26 06:59:41;;;;;;;15.30;5.87;;;;;;;30.65;92.73;100204.14;1721670;81;21519;-89
2021/06/26 07:02:08;;;;;;;14.95;5.97;;;;;;;30.78;99.26;100202.87;1772940;79;21480;-91
2021/06/26 07:04:35;;;;;;;13.98;5.45;;;;;;;30.89;84.92;100191.64;1786487;79;21130;-88
2021/06/26 07:07:02;;;;;;;10.28;6.05;;;;;;;31.00;88.74;100191.15;1772613;79;20976;-93
2021/06/26 07:09:31;;;;;;;12.70;6.65;;;;;;;31.10;86.58;100194.44;1717189;82;20968;-91
2021/06/26 07:12:00;;;;;;;19.52;6.35;;;;;;;31.16;93.28;100186.69;1762567;80;21922;-91
2021/06/26 07:14:27;;;;;;;18.82;5.67;;;;;;;31.25;94.81;100183.73;1737133;81;21046;-89
2021/06/26 07:16:56;;;;;;;16.90;6.35;;;;;;;31.34;91.28;100184.56;1736730;81;21554;-88
2021/06/26 07:19:23;;;;;;;13.08;6.08;;;;;;;31.41;87.67;100178.39;1736068;81;21026;-92
2021/06/26 07:21:50;;;;;;;14.10;5.30;;;;;;;31.49;83.69;100180.56;1756813;81;21047;-88
2021/06/26 07:24:17;;;;;;;8.48;5.22;;;;;;;31.56;78.83;100173.07;1722019;81;20944;-92
2021/06/26 07:26:46;;;;;;;7.72;5.28;;;;;;;31.59;76.15;100169.03;1786407;79;21049;-90
2021/06/26 07:29:13;;;;;;;16.75;7.22;;;;;;;31.67;81.62;100168.53;1764072;80;21033;-86
2021/06/26 07:31:43;;;;;;;13.83;6.12;;;;;;;31.74;76.75;100164.22;1771465;79;20959;-85
2021/06/26 07:34:10;;;;;;;10.72;6.53;;;;;;;31.81;74.88;100161.27;1719631;80;21078;-89
2021/06/26 07:36:37;;;;;;;13.00;6.30;;;;;;;31.85;71.14;100160.47;1774934;80;20999;-90
2021/06/26 07:39:05;;;;;;;10.03;6.15;;;;;;;31.90;65.51;100163.14;1741916;80;21034;-93
2021/06/26 07:41:32;;;;;;;16.15;6.25;;;;;;;31.94;63.11;100162.06;1743114;80;21509;-94
2021/06/26 07:44:00;;;;;;;12.85;6.03;;;;;;;31.93;58.76;100168.00;1742500;80;21010;-92
2021/06/26 07:46:27;;;;;;;16.20;5.75;;;;;;;31.95;61.74;100163.69;1739872;80;21064;-92
2021/06/26 07:48:56;;;;;;;7.53;5.55;;;;;;;32.03;72.71;100160.45;1735504;80;21090;-92
2021/06/26 07:51:23;;;;;;;11.15;5.80;;;;;;;32.12;76.42;100150.48;1752561;80;21046;-93
2021/06/26 07:53:50;;;;;;;10.90;5.40;;;;;;;32.22;74.13;100160.73;1760925;80;21122;-92
2021/06/26 07:56:17;;;;;;;8.50;5.08;;;;;;;32.33;74.59;100153.98;1732346;81;20999;-89
2021/06/26 07:58:44;;;;;;;7.47;5.22;;;;;;;32.44;70.15;100153.42;1768469;80;21062;-89
2021/06/26 08:01:12;;;;;;;8.23;4.90;;;;;;;32.60;64.92;100156.89;1737220;81;21050;-92
2021/06/26 08:03:39;;;;;;;9.68;5.90;;;;;;;32.77;72.71;100147.95;1714172;80;21034;-91
2021/06/26 08:35:54;;;;;;;12.18;6.40;;;;;;;33.26;65.77;100163.91;1552486;90;21024;-93
2021/06/26 08:38:21;;;;;;;6.22;5.62;;;;;;;33.44;53.99;100171.91;1615283;83;21074;-88
2021/06/26 08:40:55;;;;;;;11.08;5.15;;;;;;;33.66;50.33;100174.20;1771136;79;21495;-88
2021/06/26 08:43:23;;;;;;;12.93;6.10;;;;;;;33.86;45.34;100168.39;1816224;77;21000;-91
2021/06/26 08:45:50;;;;;;;6.83;5.20;;;;;;;34.07;44.11;100174.98;1758158;79;21665;-90
2021/06/26 08:48:18;;;;;;;12.07;5.85;;;;;;;34.21;45.71;100169.73;1781052;78;21294;-88
2021/06/26 08:50:47;;;;;;;8.73;6.20;;;;;;;34.21;45.71;100169.73;1812645;78;21119;-89
2021/06/26 08:53:14;;;;;;;12.45;6.00;;;;;;;34.31;47.67;100168.81;1818937;77;21115;-88
2021/06/26 08:55:42;;;;;;;8.35;5.83;;;;;;;34.40;44.02;100169.83;1782767;78;21104;-90
2021/06/26 08:58:10;;;;;;;8.33;6.10;;;;;;;34.37;44.26;100173.92;1797155;77;21058;-89
2021/06/26 09:00:37;;;;;;;15.23;6.72;;;;;;;34.26;46.73;100165.05;1767870;78;21533;-89
2021/06/26 09:03:15;;;;;;;10.28;6.80;;;;;;;34.09;46.90;100168.77;1754291;79;21054;-89
2021/06/26 09:05:46;;;;;;;11.48;6.80;;;;;;;33.90;48.28;100162.70;1751883;80;20966;-92
2021/06/26 09:08:51;;;;;;;;;;;;;;;;;;;;;
2021/06/26 09:12:57;;;;;;;;;;;;;;;;;;;;;
2021/06/26 09:14:49;;;;;;;15.95;8.08;;;;;;;33.48;52.27;100146.53;1686853;83;21093;-89
2021/06/26 09:20:40;;;;;;;;;;;;;;;;;;;;;
2021/06/26 09:28:49;;;;;;;11.80;7.35;;;;;;;33.87;70.37;100137.61;1392239;102;21185;-87
2021/06/26 09:32:12;;;;;;;;;;;;;;;;;;;;;
2021/06/26 09:35:27;;;;;;;9.83;7.10;;;;;;;34.16;59.75;100121.14;1381118;100;21186;-88
2021/06/26 09:38:36;;;;;;;;;;;;;;;;;;;;;
2021/06/26 09:41:16;;;;;;;14.63;8.30;;;;;;;34.15;68.52;100123.58;1426347;98;21134;-88
2021/06/26 09:44:02;;;;;;;10.82;8.38;;;;;;;34.04;59.26;100120.18;1397389;100;21209;-87
2021/06/26 09:46:39;;;;;;;;;;;;;;;;;;;;;
2021/06/26 09:49:22;;;;;;;;;;;;;;;;;;;;;
2021/06/26 09:54:29;;;;;;;;;;;;;;;;;;;;;
2021/06/26 09:57:03;;;;;;;11.55;7.37;;;;;;;33.88;54.04;100136.52;1425267;97;21095;-91
2021/06/26 09:59:43;;;;;;;;;;;;;;;;;;;;;
2021/06/26 10:02:19;;;;;;;;;;;;;;;;;;;;;
2021/06/26 10:04:40;;;;;;;14.75;7.62;;;;;;;33.96;55.95;100135.91;1491435;88;21163;-91
2021/06/26 10:07:09;;;;;;;13.30;7.33;;;;;;;33.79;52.42;100143.06;1645277;84;21600;-90
2021/06/26 10:09:40;;;;;;;10.70;7.70;;;;;;;33.72;56.50;100145.28;1693931;80;21433;-92
2021/06/26 10:12:11;;;;;;;11.48;7.33;;;;;;;33.72;56.50;100145.28;1774596;78;28232;-86
2021/06/26 10:14:40;;;;;;;10.45;7.67;;;;;;;33.74;62.29;100144.98;1761685;79;21560;-88
2021/06/26 10:17:09;;;;;;;16.73;8.10;;;;;;;33.75;53.12;100137.95;1739760;79;21414;-91
2021/06/26 10:19:39;;;;;;;10.67;7.03;;;;;;;33.63;55.82;100136.97;1772311;78;22237;-89
2021/06/26 10:22:15;;;;;;;11.12;7.37;;;;;;;33.50;58.16;100139.76;1720336;80;21258;-90
2021/06/26 10:24:46;;;;;;;11.05;7.53;;;;;;;33.41;58.39;100137.94;1722625;81;21087;-89
2021/06/26 10:27:26;;;;;;;18.00;8.08;;;;;;;33.39;60.00;100138.76;1622904;85;37282;-87
2021/06/26 10:29:59;;;;;;;18.45;8.00;;;;;;;33.48;60.71;100149.22;1743267;80;21047;-90
2021/06/26 10:32:41;;;;;;;;;;;;;;;;;;;;;
2021/06/26 10:35:16;;;;;;;17.17;8.33;;;;;;;33.70;57.48;100150.67;1757432;78;21106;-89
2021/06/26 10:38:12;;;;;;;16.97;7.87;;;;;;;33.95;57.90;100145.66;1763136;78;21508;-90
2021/06/26 10:41:40;;;;;;;;;;;;;;;;;;;;;
2021/06/26 10:44:11;;;;;;;15.45;8.60;;;;;;;34.07;56.88;100156.08;1603582;87;21108;-90
2021/06/26 10:46:48;;;;;;;11.33;8.28;;;;;;;33.94;56.49;100150.23;1646598;85;21108;-86
2021/06/26 10:49:48;;;;;;;;;;;;;;;;;;;;;
2021/06/26 10:52:32;;;;;;;;;;;;;;;;;;;;;
2021/06/26 10:55:25;;;;;;;;;;;;;;;;;;;;;
2021/06/26 10:57:49;;;;;;;22.02;9.43;;;;;;;32.96;63.13;100159.47;1519960;91;21091;-88
2021/06/26 11:00:33;;;;;;;10.53;8.13;;;;;;;32.91;72.27;100154.11;1499972;93;21122;-90
2021/06/26 11:03:31;;;;;;;;;;;;;;;;;;;;;
2021/06/26 11:05:59;;;;;;;13.68;8.08;;;;;;;33.29;62.64;100159.28;1461342;95;21707;-89
2021/06/26 11:08:26;;;;;;;10.13;7.97;;;;;;;33.47;68.28;100159.75;1454638;96;21166;-93
2021/06/26 11:11:00;;;;;;;10.23;7.42;;;;;;;33.75;67.70;100166.84;1554885;87;21625;-90
2021/06/26 11:13:34;;;;;;;13.72;8.45;;;;;;;34.32;67.26;100156.92;1727359;79;20996;-91
2021/06/26 11:16:08;;;;;;;10.30;8.60;;;;;;;34.32;67.26;100156.92;1804037;77;20992;-92
2021/06/26 11:18:43;;;;;;;15.05;8.53;;;;;;;34.53;65.51;100162.38;1804089;78;21433;-93
2021/06/26 11:21:11;;;;;;;14.98;8.88;;;;;;;34.72;72.19;100161.64;1769361;79;21015;-92
2021/06/26 11:23:38;;;;;;;8.78;7.97;;;;;;;34.85;69.26;100155.52;1788370;78;20925;-90
2021/06/26 11:26:07;;;;;;;8.90;7.45;;;;;;;34.96;67.95;100159.48;1804721;77;21652;-93
2021/06/26 11:28:42;;;;;;;14.20;8.50;;;;;;;34.89;68.71;100159.27;1836157;77;21661;-93
2021/06/26 11:31:12;;;;;;;9.68;8.68;;;;;;;34.84;72.30;100159.88;1804560;78;21047;-88
2021/06/26 11:33:41;;;;;;;13.15;9.10;;;;;;;34.82;68.23;100162.84;1833913;77;21523;-90
2021/06/26 11:36:14;;;;;;;11.18;8.35;;;;;;;34.78;63.52;100163.70;1805252;77;21077;-92
2021/06/26 11:38:42;;;;;;;12.33;8.78;;;;;;;34.72;63.71;100153.53;1795913;77;21669;-90
2021/06/26 11:41:13;;;;;;;11.85;8.75;;;;;;;34.66;60.15;100151.95;1815052;77;20999;-90
2021/06/26 11:43:50;;;;;;;14.18;9.23;;;;;;;34.56;60.82;100150.19;1803843;77;21020;-87
2021/06/26 11:46:17;;;;;;;9.63;8.58;;;;;;;34.46;59.46;100144.36;1774422;78;20989;-94
2021/06/26 11:48:50;;;;;;;21.15;8.33;;;;;;;34.46;65.95;100139.48;1804740;78;21073;-89
2021/06/26 11:51:19;;;;;;;17.87;8.83;;;;;;;34.56;63.48;100134.80;1726236;81;20960;-88
2021/06/26 11:53:48;;;;;;;13.93;8.68;;;;;;;34.62;60.56;100144.97;1704978;83;20995;-89
2021/06/26 11:56:17;;;;;;;;;;;;;;;34.54;54.37;100133.45;1750313;80;21082;-89
2021/06/26 11:58:49;;;;;;;9.15;7.83;;;;;;;34.46;58.46;100139.48;1748437;80;20375;-90
2021/06/26 12:01:27;;;;;;;12.73;7.70;;;;;;;34.41;48.34;100131.71;1705143;81;21081;-89
2021/06/26 12:04:01;;;;;;;14.28;6.90;;;;;;;34.26;46.28;100131.28;1776240;79;21014;-91
2021/06/26 12:06:45;;;;;;;;;;;;;;;;;;;;;
2021/06/26 12:12:06;;;;;;;;;;;;;;;;;;;;;
2021/06/26 12:14:42;;;;;;;;;;;;;;;;;;;;;
2021/06/26 12:17:21;;;;;;;;;;;;;;;;;;;;;
2021/06/26 12:20:29;;;;;;;;;;;;;;;;;;;;;
2021/06/26 12:23:00;;;;;;;;;;;;;;;;;;;;;
2021/06/26 12:25:33;;;;;;;;;;;;;;;;;;;;;
2021/06/26 12:28:27;;;;;;;;;;;;;;;;;;;;;
2021/06/26 12:31:11;;;;;;;16.62;6.05;;;;;;;34.34;49.85;100104.73;1337658;105;21220;-93
2021/06/26 12:33:47;;;;;;;10.43;6.12;;;;;;;34.34;49.85;100104.73;1322876;98;21765;-91
2021/06/26 12:36:18;;;;;;;;;;;;;;;34.42;50.01;100099.55;1429280;96;21163;-90
2021/06/26 12:38:50;;;;;;;13.08;6.33;;;;;;;34.51;44.31;100090.80;1499119;93;20188;-92
2021/06/26 12:41:30;;;;;;;9.58;6.30;;;;;;;34.55;47.79;100092.64;1489945;92;21237;-89
2021/06/26 12:43:54;;;;;;;10.80;6.65;;;;;;;34.52;46.43;100085.09;1488843;94;21178;-91
2021/06/26 12:46:31;;;;;;;12.15;6.92;;;;;;;34.52;48.86;100087.01;1489410;93;26859;-91